TimeEST,TemperatureF,Dew PointF,Humidity,Sea Level PressureIn,VisibilityMPH,Wind Direction,Wind SpeedMPH,Gust SpeedMPH,PrecipitationIn,Events,Conditions,WindDirDegrees,DateUTC
12:11 AM,30.2,28.4,93,29.69,1.8,South,5.8,-,0.00,Snow,Light Snow,180,2013-01-17 05:11:00
12:24 AM,30.2,28.4,93,29.68,1.2,Variable,4.6,-,0.00,Snow,Light Snow,0,2013-01-17 05:24:00
12:53 AM,30.9,28.9,92,29.71,1.2,SSW,3.5,-,0.01,Snow,Light Snow,200,2013-01-17 05:53:00
1:07 AM,30.2,28.4,93,29.68,1.5,SSW,3.5,-,0.00,Snow,Light Snow,210,2013-01-17 06:07:00
1:29 AM,30.2,28.4,93,29.68,1.5,SSW,3.5,-,0.01,Snow,Light Snow,210,2013-01-17 06:29:00
1:37 AM,30.2,28.4,93,29.68,1.5,SSW,3.5,-,0.01,Snow,Light Snow,210,2013-01-17 06:37:00
1:53 AM,30.9,28.9,92,29.70,2.0,SSW,4.6,-,0.01,Snow,Light Snow,200,2013-01-17 06:53:00
2:00 AM,30.2,28.4,93,29.68,2.0,SSW,4.6,-,0.01,Snow,Light Snow,200,2013-01-17 07:00:00
2:28 AM,30.2,28.4,93,29.67,3.0,SW,3.5,-,0.01,Snow,Light Snow,220,2013-01-17 07:28:00
2:40 AM,30.2,28.4,93,29.67,3.0,Calm,Calm,-,0.01,Snow,Light Snow,0,2013-01-17 07:40:00
2:53 AM,30.9,28.9,92,29.69,4.0,SW,3.5,-,0.02,Snow,Light Snow,230,2013-01-17 07:53:00
3:07 AM,30.2,28.4,93,29.66,1.8,Calm,Calm,-,0.00,Snow,Light Snow,0,2013-01-17 08:07:00
3:18 AM,30.2,28.4,93,29.65,1.2,South,3.5,-,0.00,Snow,Light Snow,190,2013-01-17 08:18:00
3:26 AM,30.2,28.4,93,29.65,1.5,Calm,Calm,-,0.00,Snow,Light Snow,0,2013-01-17 08:26:00
3:34 AM,30.2,28.4,93,29.64,1.5,Calm,Calm,-,0.01,Snow,Light Snow,0,2013-01-17 08:34:00
3:53 AM,30.9,28.9,92,29.67,4.0,Calm,Calm,-,0.01,Snow,Light Snow,0,2013-01-17 08:53:00
4:09 AM,30.2,28.4,93,29.64,10.0,SSW,4.6,-,0.00,,Overcast,200,2013-01-17 09:09:00
4:53 AM,30.9,28.0,89,29.66,10.0,SW,4.6,-,0.00,,Overcast,220,2013-01-17 09:53:00
5:14 AM,30.2,28.4,93,29.62,10.0,South,3.5,-,N/A,,Overcast,190,2013-01-17 10:14:00
5:53 AM,30.0,28.0,92,29.65,10.0,SSW,4.6,-,N/A,,Overcast,210,2013-01-17 10:53:00
6:53 AM,30.0,27.0,88,29.65,10.0,SW,6.9,-,N/A,,Overcast,220,2013-01-17 11:53:00
7:53 AM,30.0,26.1,85,29.68,10.0,SSW,6.9,-,N/A,,Overcast,210,2013-01-17 12:53:00
8:53 AM,30.0,25.0,82,29.69,10.0,SW,10.4,-,N/A,,Mostly Cloudy,220,2013-01-17 13:53:00
9:53 AM,30.9,25.0,79,29.70,10.0,SW,8.1,-,N/A,,Scattered Clouds,230,2013-01-17 14:53:00
10:53 AM,33.1,25.0,72,29.69,10.0,WSW,13.8,20.7,N/A,,Mostly Cloudy,240,2013-01-17 15:53:00
11:53 AM,34.0,27.0,75,29.72,4.0,West,18.4,24.2,0.00,Snow,Light Snow,280,2013-01-17 16:53:00
12:53 PM,30.0,10.9,45,29.75,6.0,WSW,23.0,33.4,0.00,,Haze,240,2013-01-17 17:53:00
1:53 PM,28.0,3.0,34,29.80,10.0,West,17.3,28.8,N/A,,Clear,270,2013-01-17 18:53:00
2:33 PM,21.2,10.4,63,29.83,10.0,North,15.0,23.0,N/A,,Partly Cloudy,360,2013-01-17 19:33:00
2:46 PM,17.6,8.6,68,29.85,9.0,North,17.3,-,N/A,,Partly Cloudy,350,2013-01-17 19:46:00
2:53 PM,17.1,7.0,65,29.88,10.0,North,18.4,25.3,N/A,,Partly Cloudy,350,2013-01-17 19:53:00
3:29 PM,12.2,1.4,62,29.90,4.0,North,18.4,26.5,0.00,Snow,Light Snow,360,2013-01-17 20:29:00
3:37 PM,12.2,1.4,62,29.91,5.0,North,18.4,24.2,0.00,Snow,Light Snow,10,2013-01-17 20:37:00
3:53 PM,12.0,-0.0,59,29.95,9.0,NNE,12.7,21.9,0.00,,Overcast,20,2013-01-17 20:53:00
4:53 PM,9.0,-5.1,53,30.00,10.0,NNW,15.0,23.0,N/A,,Partly Cloudy,340,2013-01-17 21:53:00
5:53 PM,3.9,-9.0,55,30.06,10.0,North,12.7,-,N/A,,Partly Cloudy,10,2013-01-17 22:53:00
6:53 PM,1.9,-14.1,47,30.09,10.0,North,9.2,-,N/A,,Clear,10,2013-01-17 23:53:00
7:53 PM,1.0,-16.1,45,30.12,10.0,North,9.2,-,N/A,,Clear,360,2013-01-18 00:53:00
8:53 PM,-0.0,-17.0,45,30.14,10.0,NNW,8.1,-,N/A,,Clear,340,2013-01-18 01:53:00
9:53 PM,-0.9,-20.0,40,30.14,10.0,NNW,9.2,-,N/A,,Clear,340,2013-01-18 02:53:00
10:53 PM,-2.9,-18.9,46,30.13,10.0,North,9.2,-,N/A,,Clear,10,2013-01-18 03:53:00
11:53 PM,-4.0,-18.9,49,30.14,10.0,North,8.1,-,N/A,,Clear,10,2013-01-18 04:53:00